Time;durP1;ratioP1;P1;durP2;ratioP2;P2;SDS_P1;SDS_P2;PMS_P1;PMS_P2;Temp;Humidity;BMP_temperature;BMP_pressure;BME280_temperature;BME280_humidity;BME280_pressure;Samples;Min_cycle;Max_cycle;Signal;HPM_P1;HPM_P2
2021/12/10 00:00:23;;;;;;;41.53;21.88;;;4.10;99.90;;;;;;5058331;28;20097;-41
2021/12/10 00:02:50;;;;;;;51.85;22.60;;;4.10;99.90;;;;;;5039729;28;20044;-41
2021/12/10 00:05:32;;;;;;;41.72;20.83;;;4.10;99.90;;;;;;5049028;28;20501;-42
2021/12/10 00:07:59;;;;;;;39.15;19.73;;;4.10;99.90;;;;;;5057564;28;20057;-41
2021/12/10 00:10:30;;;;;;;45.15;21.75;;;4.10;99.90;;;;;;5054294;28;20429;-42
2021/12/10 00:12:56;;;;;;;40.55;21.13;;;4.10;99.90;;;;;;5056530;28;20105;-43
2021/12/10 00:15:26;;;;;;;44.80;20.90;;;4.10;99.90;;;;;;5077753;28;20434;-42
2021/12/10 00:17:53;;;;;;;44.63;21.63;;;4.10;99.90;;;;;;5047842;28;20467;-41
2021/12/10 00:20:23;;;;;;;38.63;20.52;;;4.10;99.90;;;;;;5081059;28;20040;-41
2021/12/10 00:22:58;;;;;;;43.08;21.20;;;4.10;99.90;;;;;;5031063;28;20105;-41
2021/12/10 00:25:35;;;;;;;43.50;20.88;;;4.10;99.90;;;;;;5048958;28;20041;-42
2021/12/10 00:28:13;;;;;;;39.13;21.27;;;4.10;99.90;;;;;;5081608;28;20120;-42
2021/12/10 00:30:48;;;;;;;42.47;19.98;;;4.10;99.90;;;;;;5057670;28;20044;-43
2021/12/10 00:33:20;;;;;;;40.13;20.77;;;4.10;99.90;;;;;;5068800;28;20052;-42
2021/12/10 00:35:47;;;;;;;39.83;19.88;;;4.00;99.90;;;;;;5053268;28;20118;-42
2021/12/10 00:38:14;;;;;;;36.67;20.20;;;4.10;99.90;;;;;;5049013;28;20060;-41
2021/12/10 00:40:42;;;;;;;43.30;19.80;;;4.10;99.90;;;;;;5047602;28;20037;-41
2021/12/10 00:43:09;;;;;;;;;;;4.10;99.90;;;;;;5049532;28;20037;-41
2021/12/10 00:45:35;;;;;;;40.60;20.40;;;4.10;99.90;;;;;;5080985;28;20009;-42
2021/12/10 00:48:02;;;;;;;41.45;20.25;;;4.10;99.90;;;;;;5048877;28;20409;-43
2021/12/10 00:50:35;;;;;;;39.25;20.00;;;4.10;99.90;;;;;;5049011;28;20076;-41
2021/12/10 00:53:03;;;;;;;36.08;19.30;;;4.10;99.90;;;;;;5049223;28;20092;-42
2021/12/10 00:55:29;;;;;;;38.47;19.30;;;4.10;99.90;;;;;;5048948;28;20037;-42
2021/12/10 00:57:57;;;;;;;39.95;19.63;;;4.10;99.90;;;;;;5047878;28;20123;-42
2021/12/10 01:00:33;;;;;;;33.30;18.77;;;4.10;99.90;;;;;;5030795;28;20049;-42
2021/12/10 01:02:59;;;;;;;39.40;19.90;;;4.10;99.90;;;;;;5067114;28;20049;-42
2021/12/10 01:05:26;;;;;;;35.05;18.33;;;4.10;99.90;;;;;;5048540;28;20041;-41
2021/12/10 01:07:52;;;;;;;42.33;19.48;;;4.10;99.90;;;;;;5039476;28;20202;-42
2021/12/10 01:10:26;;;;;;;34.63;17.90;;;4.10;99.90;;;;;;5048642;28;20056;-41
2021/12/10 01:12:55;;;;;;;32.10;17.02;;;4.10;99.90;;;;;;5030266;28;20387;-42
2021/12/10 01:16:12;;;;;;;35.55;17.95;;;4.10;99.90;;;;;;5066483;28;20483;-41
2021/12/10 01:24:31;;;;;;;36.78;17.88;;;4.10;99.90;;;;;;5066959;28;20410;-42
2021/12/10 01:27:02;;;;;;;31.33;16.73;;;4.10;99.90;;;;;;5047150;28;20558;-42
2021/12/10 01:29:34;;;;;;;42.08;18.55;;;4.10;99.90;;;;;;5046701;28;20044;-43
2021/12/10 01:32:05;;;;;;;33.85;16.75;;;4.10;99.90;;;;;;5047377;28;20055;-41
2021/12/10 01:34:32;;;;;;;35.25;16.58;;;4.10;99.90;;;;;;5047242;28;20056;-42
2021/12/10 01:36:59;;;;;;;35.03;16.42;;;4.20;99.90;;;;;;5050944;28;20120;-42
2021/12/10 01:39:29;;;;;;;33.55;15.68;;;4.20;99.90;;;;;;5052053;28;20043;-42
2021/12/10 01:42:03;;;;;;;32.47;16.10;;;4.20;99.90;;;;;;5052007;28;20131;-41
2021/12/10 01:44:36;;;;;;;30.95;16.75;;;4.20;99.90;;;;;;5050661;28;20418;-41
2021/12/10 01:47:05;;;;;;;38.88;17.02;;;4.20;99.90;;;;;;5052478;28;20114;-42
2021/12/10 01:49:31;;;;;;;32.10;16.70;;;4.20;99.90;;;;;;5050531;28;20064;-42
2021/12/10 01:51:58;;;;;;;33.10;16.85;;;4.20;99.90;;;;;;5050364;28;20186;-42
2021/12/10 01:54:29;;;;;;;37.50;16.10;;;4.20;99.90;;;;;;5051819;28;20048;-42
2021/12/10 01:56:57;;;;;;;32.03;15.57;;;4.20;99.90;;;;;;5051681;28;20152;-42
2021/12/10 01:59:26;;;;;;;31.65;15.75;;;4.20;99.90;;;;;;5051556;28;20045;-42
2021/12/10 02:01:56;;;;;;;36.78;16.33;;;4.20;99.90;;;;;;5051812;28;20386;-42
2021/12/10 02:04:24;;;;;;;32.72;15.27;;;4.10;99.90;;;;;;5057101;28;20036;-42
2021/12/10 02:06:51;;;;;;;26.02;14.65;;;4.20;99.90;;;;;;5063198;28;20055;-42
2021/12/10 02:09:18;;;;;;;28.38;16.05;;;4.10;99.90;;;;;;5050075;28;20673;-42
2021/12/10 02:11:45;;;;;;;32.42;16.17;;;4.10;99.90;;;;;;5049953;28;20057;-43
2021/12/10 02:14:11;;;;;;;33.10;16.40;;;4.10;99.90;;;;;;5053316;28;20098;-42
2021/12/10 02:16:37;;;;;;;34.03;16.40;;;4.10;99.90;;;;;;5049281;28;20041;-42
2021/12/10 02:19:06;;;;;;;33.28;16.63;;;4.10;99.90;;;;;;5051369;28;20476;-43
2021/12/10 02:21:34;;;;;;;38.17;16.98;;;4.10;99.90;;;;;;5066662;28;20095;-42
2021/12/10 02:24:01;;;;;;;28.80;15.60;;;4.10;99.90;;;;;;5051906;28;20045;-42
2021/12/10 02:26:40;;;;;;;35.03;16.70;;;4.10;99.90;;;;;;5066671;28;20053;-43
2021/12/10 02:29:09;;;;;;;34.55;17.13;;;4.10;99.90;;;;;;5050992;28;20041;-42
2021/12/10 02:31:35;;;;;;;34.53;16.25;;;4.10;99.90;;;;;;5083014;28;20124;-43
2021/12/10 02:34:02;;;;;;;37.22;18.98;;;4.10;99.90;;;;;;5051802;28;20228;-43
2021/12/10 02:36:29;;;;;;;35.83;17.58;;;4.10;99.90;;;;;;5033318;28;20041;-42
2021/12/10 02:38:56;;;;;;;33.05;18.73;;;4.10;99.90;;;;;;5063119;28;20056;-42
2021/12/10 02:41:29;;;;;;;32.83;17.83;;;4.10;99.90;;;;;;5039632;28;20076;-42
2021/12/10 02:43:57;;;;;;;37.88;18.92;;;4.10;99.90;;;;;;5069806;28;20044;-42
2021/12/10 02:46:23;;;;;;;35.08;17.85;;;4.10;99.90;;;;;;5048329;28;20095;-42
2021/12/10 02:48:49;;;;;;;38.55;18.23;;;4.10;99.90;;;;;;5050454;28;20045;-43
2021/12/10 02:51:16;;;;;;;36.30;17.63;;;4.10;99.90;;;;;;5053021;28;20033;-41
2021/12/10 02:53:45;;;;;;;30.33;17.15;;;4.10;99.90;;;;;;5037888;28;20049;-41
2021/12/10 02:56:13;;;;;;;31.98;16.63;;;4.10;99.90;;;;;;5082517;28;20053;-41
2021/12/10 02:58:40;;;;;;;30.95;16.98;;;4.10;99.90;;;;;;5050200;28;20060;-41
2021/12/10 03:01:37;;;;;;;30.17;15.80;;;4.10;99.90;;;;;;5049109;28;20741;-41
2021/12/10 03:04:07;;;;;;;25.73;15.52;;;4.10;99.90;;;;;;5053784;28;20068;-41
2021/12/10 03:06:48;;;;;;;27.88;14.32;;;4.00;99.90;;;;;;5060318;28;20048;-41
2021/12/10 03:09:18;;;;;;;26.75;14.20;;;4.10;99.90;;;;;;5050317;28;20123;-41
2021/12/10 03:11:48;;;;;;;31.73;15.15;;;4.00;99.90;;;;;;5049081;28;20036;-41
2021/12/10 03:14:17;;;;;;;28.58;13.98;;;4.00;99.90;;;;;;5051138;28;20128;-41
2021/12/10 03:16:45;;;;;;;28.73;13.82;;;4.00;99.90;;;;;;5052309;28;20045;-41
2021/12/10 03:19:11;;;;;;;21.75;12.35;;;4.00;99.90;;;;;;5048687;28;20553;-41
2021/12/10 03:21:42;;;;;;;26.52;12.95;;;4.00;99.90;;;;;;5048479;28;20060;-41
2021/12/10 03:24:09;;;;;;;24.20;12.30;;;4.00;99.90;;;;;;5082740;28;20186;-42
2021/12/10 03:26:35;;;;;;;26.53;14.27;;;4.00;99.90;;;;;;5050041;28;20079;-41
2021/12/10 03:29:01;;;;;;;26.90;13.63;;;4.00;99.90;;;;;;5082161;28;20041;-41
2021/12/10 03:31:27;;;;;;;21.10;12.77;;;4.00;99.90;;;;;;5031788;28;20106;-41
2021/12/10 03:33:55;;;;;;;28.65;14.52;;;4.00;99.90;;;;;;5031753;28;20508;-41
2021/12/10 03:36:22;;;;;;;23.60;13.00;;;4.00;99.90;;;;;;5082282;28;20048;-41
2021/12/10 03:38:50;;;;;;;28.98;14.00;;;4.00;99.90;;;;;;5082302;28;20383;-42
2021/12/10 03:41:16;;;;;;;29.30;13.88;;;4.00;99.90;;;;;;5051754;28;20044;-41
2021/12/10 03:43:43;;;;;;;28.88;13.25;;;4.00;99.90;;;;;;5054632;28;20152;-41
2021/12/10 03:46:10;;;;;;;24.80;11.98;;;3.90;99.90;;;;;;5051596;28;20049;-41
2021/12/10 03:48:41;;;;;;;26.48;13.13;;;3.90;99.90;;;;;;5061705;28;20386;-41
2021/12/10 03:51:10;;;;;;;20.13;11.13;;;3.90;99.90;;;;;;5048396;28;20459;-41
2021/12/10 03:53:36;;;;;;;22.42;11.77;;;3.90;99.90;;;;;;5049600;28;20056;-41
2021/12/10 03:56:11;;;;;;;25.63;12.32;;;3.90;99.90;;;;;;5047698;28;20545;-40
2021/12/10 03:58:38;;;;;;;26.73;12.65;;;3.90;99.90;;;;;;5049082;28;20032;-42
2021/12/10 04:01:06;;;;;;;26.80;12.00;;;3.90;99.90;;;;;;5049725;28;20070;-41
2021/12/10 04:03:34;;;;;;;23.20;11.98;;;3.90;99.90;;;;;;5056901;28;20390;-41
2021/12/10 04:06:00;;;;;;;26.35;11.63;;;3.90;99.90;;;;;;5066972;28;20048;-42
2021/12/10 04:08:26;;;;;;;26.45;12.63;;;3.90;99.90;;;;;;5053351;28;20069;-42
2021/12/10 04:10:53;;;;;;;23.25;12.55;;;3.90;99.90;;;;;;5047896;28;20048;-41
2021/12/10 04:13:20;;;;;;;30.77;14.15;;;3.90;99.90;;;;;;5047524;28;20369;-42
2021/12/10 04:15:47;;;;;;;23.05;12.27;;;3.90;99.90;;;;;;5081116;28;20513;-41
2021/12/10 04:18:14;;;;;;;27.73;12.50;;;3.90;99.90;;;;;;5049418;28;20490;-41
2021/12/10 04:20:41;;;;;;;26.48;13.00;;;3.90;99.90;;;;;;5057695;28;20564;-41
2021/12/10 04:23:10;;;;;;;26.23;13.45;;;3.90;99.90;;;;;;5050680;28;20080;-41
2021/12/10 04:25:39;;;;;;;22.40;12.93;;;3.90;99.90;;;;;;5081358;28;20072;-41
2021/12/10 04:28:07;;;;;;;24.38;13.10;;;3.90;99.90;;;;;;5081334;28;20053;-43
2021/12/10 04:30:39;;;;;;;21.90;13.18;;;3.90;99.90;;;;;;5051393;28;20456;-41
2021/12/10 04:33:09;;;;;;;25.83;12.90;;;3.90;99.90;;;;;;5053883;28;20499;-41
2021/12/10 04:35:36;;;;;;;22.70;13.48;;;3.90;99.90;;;;;;5068690;28;20051;-41
2021/12/10 04:38:03;;;;;;;30.05;15.02;;;3.90;99.90;;;;;;5067772;28;20076;-41
2021/12/10 04:40:30;;;;;;;26.80;15.63;;;3.90;99.90;;;;;;5068833;28;20044;-41
2021/12/10 04:42:56;;;;;;;26.30;16.00;;;3.90;99.90;;;;;;5067825;28;20112;-41
2021/12/10 04:45:21;;;;;;;26.70;16.23;;;3.90;99.90;;;;;;5068912;28;20055;-42
2021/12/10 04:47:48;;;;;;;27.90;15.52;;;3.90;99.90;;;;;;5056411;28;20040;-42
2021/12/10 04:50:17;;;;;;;33.85;16.33;;;3.90;99.90;;;;;;5068963;28;20478;-42
2021/12/10 04:52:43;;;;;;;34.95;18.20;;;3.90;99.90;;;;;;5062088;28;20040;-42
2021/12/10 04:55:10;;;;;;;33.75;18.15;;;3.90;99.90;;;;;;5060607;28;20122;-41
2021/12/10 04:57:37;;;;;;;40.35;20.02;;;3.90;99.90;;;;;;5067982;28;20109;-44
2021/12/10 05:00:06;;;;;;;33.05;18.52;;;3.80;99.90;;;;;;5047344;28;20551;-41
2021/12/10 05:02:34;;;;;;;29.48;18.90;;;3.80;99.90;;;;;;5068842;28;20047;-41
2021/12/10 05:05:02;;;;;;;32.35;18.40;;;3.80;99.90;;;;;;5061703;28;20055;-42
2021/12/10 05:07:30;;;;;;;;;;;3.70;99.90;;;;;;5067590;28;20386;-41
2021/12/10 05:09:57;;;;;;;26.55;17.00;;;3.60;99.90;;;;;;5066279;28;20431;-42
2021/12/10 05:12:23;;;;;;;28.98;17.45;;;3.60;99.90;;;;;;5063781;28;20048;-41
2021/12/10 05:14:52;;;;;;;30.42;19.00;;;3.50;99.90;;;;;;5065598;28;20044;-41
2021/12/10 05:17:18;;;;;;;31.70;17.85;;;3.50;99.90;;;;;;5050809;28;20136;-41
2021/12/10 05:19:47;;;;;;;29.80;18.27;;;3.50;99.90;;;;;;5067004;28;20040;-41
2021/12/10 05:22:13;;;;;;;27.00;17.30;;;3.40;99.90;;;;;;5054908;28;20544;-42
2021/12/10 05:24:39;;;;;;;31.63;16.55;;;3.30;99.90;;;;;;5054457;28;20067;-41
2021/12/10 05:27:05;;;;;;;29.15;16.83;;;3.20;99.90;;;;;;5071116;28;20036;-41
2021/12/10 05:29:31;;;;;;;31.75;17.88;;;3.20;99.90;;;;;;5035192;28;20074;-41
2021/12/10 05:31:59;;;;;;;31.08;17.55;;;3.10;99.90;;;;;;5052272;28;20479;-41
2021/12/10 05:34:25;;;;;;;31.00;16.63;;;3.00;99.90;;;;;;5060333;28;20485;-41
2021/12/10 05:36:52;;;;;;;27.67;16.20;;;3.00;99.90;;;;;;5067854;28;20455;-43
2021/12/10 05:39:22;;;;;;;33.75;16.73;;;3.00;99.90;;;;;;5052276;28;20276;-42
2021/12/10 05:41:47;;;;;;;27.48;16.30;;;2.90;99.90;;;;;;5057084;28;20048;-41
2021/12/10 05:44:13;;;;;;;29.02;16.52;;;2.80;99.90;;;;;;5055854;28;20463;-41
2021/12/10 05:46:40;;;;;;;29.98;16.25;;;2.80;99.90;;;;;;5060025;28;20052;-41
2021/12/10 05:49:06;;;;;;;33.97;17.70;;;2.70;99.90;;;;;;5056367;28;20119;-41
2021/12/10 05:51:33;;;;;;;27.98;16.20;;;2.70;99.90;;;;;;5067357;28;20049;-42
2021/12/10 05:54:00;;;;;;;28.98;16.40;;;2.60;99.90;;;;;;5051762;28;20052;-41
2021/12/10 05:56:26;;;;;;;33.35;17.95;;;2.60;99.90;;;;;;5051529;28;20049;-41
2021/12/10 05:58:52;;;;;;;29.75;17.75;;;2.60;99.90;;;;;;5050543;28;20044;-41
2021/12/10 06:01:20;;;;;;;34.42;18.60;;;2.50;99.90;;;;;;5051188;28;20047;-41
2021/12/10 06:03:52;;;;;;;36.50;19.67;;;2.50;99.90;;;;;;5043186;28;20670;-41
2021/12/10 06:06:20;;;;;;;33.92;18.90;;;;;;;;;;5061420;28;20045;-41
2021/12/10 06:08:46;;;;;;;32.40;17.98;;;;;;;;;;5052042;28;20128;-41
2021/12/10 06:11:12;;;;;;;35.92;18.38;;;2.40;99.90;;;;;;5059556;28;20478;-41
2021/12/10 06:13:38;;;;;;;31.70;18.27;;;2.50;99.90;;;;;;5050488;28;20037;-41
2021/12/10 06:16:06;;;;;;;31.10;19.40;;;2.80;99.90;;;;;;5068488;28;20045;-40
2021/12/10 06:18:32;;;;;;;38.60;20.85;;;2.80;99.90;;;;;;5048006;28;20403;-40
2021/12/10 06:20:58;;;;;;;34.25;18.88;;;2.70;99.90;;;;;;5052858;28;20057;-40
2021/12/10 06:23:24;;;;;;;35.80;18.77;;;2.80;99.90;;;;;;5051348;28;20131;-41
2021/12/10 06:25:50;;;;;;;40.20;19.58;;;2.70;99.90;;;;;;5050198;28;20495;-41
2021/12/10 06:28:18;;;;;;;35.55;19.35;;;2.70;99.90;;;;;;5059485;28;20037;-41
2021/12/10 06:30:46;;;;;;;36.72;19.30;;;2.70;99.90;;;;;;5032175;28;20139;-41
2021/12/10 06:33:18;;;;;;;;;;;2.70;99.90;;;;;;5050839;28;20029;-41
2021/12/10 06:35:48;;;;;;;33.13;18.15;;;2.90;99.90;;;;;;5083728;28;19954;-41
2021/12/10 06:38:15;;;;;;;29.65;18.23;;;2.70;99.90;;;;;;5032987;28;20065;-41
2021/12/10 06:40:43;;;;;;;37.70;18.63;;;3.00;99.90;;;;;;5048921;28;20551;-41
2021/12/10 06:43:11;;;;;;;32.33;17.88;;;2.70;99.90;;;;;;5066497;28;20052;-41
2021/12/10 06:45:41;;;;;;;29.77;17.73;;;2.80;99.90;;;;;;5067655;28;20041;-40
2021/12/10 06:48:10;;;;;;;29.00;17.17;;;2.90;99.90;;;;;;5048799;28;20056;-41
2021/12/10 06:50:43;;;;;;;29.95;16.50;;;3.00;99.90;;;;;;5051818;28;20037;-41
2021/12/10 06:53:10;;;;;;;29.77;16.95;;;2.90;99.90;;;;;;5048016;28;20041;-41
2021/12/10 06:55:36;;;;;;;28.42;17.63;;;2.90;99.90;;;;;;5049581;28;20049;-41
2021/12/10 06:58:05;;;;;;;29.73;17.10;;;3.00;99.90;;;;;;5049908;28;20405;-41
2021/12/10 07:00:41;;;;;;;32.13;16.42;;;2.80;99.90;;;;;;5052715;28;20040;-41
2021/12/10 07:03:11;;;;;;;27.92;17.83;;;2.90;99.90;;;;;;5065672;28;20072;-41
2021/12/10 07:05:37;;;;;;;32.55;16.92;;;2.80;99.90;;;;;;5053734;28;20036;-41
2021/12/10 07:08:03;;;;;;;31.55;17.38;;;2.90;99.90;;;;;;5057120;28;20045;-41
2021/12/10 07:10:30;;;;;;;32.97;17.30;;;;;;;;;;5048835;28;20049;-41
2021/12/10 07:12:56;;;;;;;27.63;17.15;;;2.40;99.90;;;;;;5049617;28;20643;-41
2021/12/10 07:15:23;;;;;;;27.13;15.68;;;2.40;99.90;;;;;;5037634;28;20038;-41
2021/12/10 07:17:50;;;;;;;30.92;15.93;;;2.30;99.90;;;;;;5063589;28;20036;-41
2021/12/10 07:20:20;;;;;;;23.02;14.45;;;2.20;99.90;;;;;;5049781;28;20037;-41
2021/12/10 07:22:46;;;;;;;23.67;14.43;;;2.20;99.90;;;;;;5049144;28;20106;-41
2021/12/10 07:25:13;;;;;;;27.50;14.90;;;2.20;99.90;;;;;;5050376;28;20135;-41
2021/12/10 07:27:41;;;;;;;21.10;13.32;;;2.10;99.90;;;;;;5066406;28;20045;-41
2021/12/10 07:30:08;;;;;;;24.10;13.80;;;2.10;99.90;;;;;;5032586;28;20125;-41
2021/12/10 07:32:35;;;;;;;27.25;14.15;;;2.00;99.90;;;;;;5066728;28;20051;-40
2021/12/10 07:35:03;;;;;;;25.05;13.32;;;2.00;99.90;;;;;;5058195;28;20041;-41
2021/12/10 07:37:29;;;;;;;25.25;13.40;;;2.00;99.90;;;;;;5069349;28;20457;-41
2021/12/10 07:39:55;;;;;;;20.52;11.65;;;2.00;99.90;;;;;;5068503;28;20094;-41
2021/12/10 07:42:22;;;;;;;22.80;12.82;;;1.90;99.90;;;;;;5070164;28;20041;-41
2021/12/10 07:44:50;;;;;;;23.17;12.43;;;1.90;99.90;;;;;;5051857;28;20049;-41
2021/12/10 07:47:17;;;;;;;23.00;11.40;;;1.90;99.90;;;;;;5066660;28;20454;-41
2021/12/10 07:49:44;;;;;;;22.75;12.35;;;1.80;99.90;;;;;;5057445;28;20040;-41
2021/12/10 07:52:20;;;;;;;20.00;10.57;;;1.80;99.90;;;;;;5051660;28;20137;-41
2021/12/10 07:54:47;;;;;;;21.05;11.55;;;1.80;99.90;;;;;;5068231;28;20052;-41
2021/12/10 07:57:16;;;;;;;18.60;10.63;;;1.80;99.90;;;;;;5064989;28;20060;-41
2021/12/10 07:59:43;;;;;;;20.15;10.60;;;1.80;99.90;;;;;;5058566;28;20086;-40
2021/12/10 08:02:09;;;;;;;19.42;10.57;;;1.80;99.90;;;;;;5069609;28;20584;-41
2021/12/10 08:04:35;;;;;;;16.02;9.75;;;1.80;99.90;;;;;;5063755;28;20163;-41
2021/12/10 08:07:01;;;;;;;18.33;10.20;;;1.80;99.90;;;;;;5064217;28;20056;-40
2021/12/10 08:09:27;;;;;;;17.92;9.77;;;1.70;99.90;;;;;;5060236;28;20543;-41
2021/12/10 08:11:54;;;;;;;16.98;10.00;;;1.80;99.90;;;;;;5047612;28;20140;-41
2021/12/10 08:14:20;;;;;;;16.73;9.70;;;1.80;99.90;;;;;;5081959;28;20115;-41
2021/12/10 08:16:46;;;;;;;17.90;10.15;;;1.70;99.90;;;;;;5062952;28;20083;-41
2021/12/10 08:19:12;;;;;;;19.90;10.45;;;1.80;99.90;;;;;;5049610;28;20056;-41
2021/12/10 08:21:39;;;;;;;18.43;10.40;;;1.80;99.90;;;;;;5049512;28;20502;-41
2021/12/10 08:24:06;;;;;;;15.88;8.93;;;1.80;99.90;;;;;;5043523;28;20555;-41
2021/12/10 08:26:32;;;;;;;18.98;9.80;;;1.80;99.90;;;;;;5050393;28;20120;-41
2021/12/10 08:28:58;;;;;;;17.90;9.25;;;1.80;99.90;;;;;;5031307;28;20487;-41
2021/12/10 08:31:25;;;;;;;15.50;9.32;;;1.80;99.90;;;;;;5049422;28;20588;-41
2021/12/10 08:33:51;;;;;;;19.90;8.60;;;1.80;99.90;;;;;;5047925;28;20120;-41
2021/12/10 08:36:20;;;;;;;16.58;9.00;;;1.70;99.90;;;;;;5030381;28;20037;-41
2021/12/10 08:38:47;;;;;;;16.13;9.25;;;1.80;99.90;;;;;;5083865;28;20049;-40
2021/12/10 08:41:20;;;;;;;17.33;9.00;;;1.80;99.90;;;;;;5063010;28;20041;-41
2021/12/10 08:43:46;;;;;;;17.35;8.88;;;1.80;99.90;;;;;;5048802;28;20179;-41
2021/12/10 08:46:13;;;;;;;19.80;8.90;;;1.80;99.90;;;;;;5052501;28;20048;-41
2021/12/10 08:48:40;;;;;;;16.38;9.50;;;1.90;99.90;;;;;;5053593;28;20155;-41
2021/12/10 08:51:14;;;;;;;13.40;7.80;;;1.90;99.90;;;;;;5062411;28;20048;-41
2021/12/10 08:53:41;;;;;;;15.43;8.32;;;1.90;99.90;;;;;;5057073;28;20041;-41
2021/12/10 08:56:08;;;;;;;18.23;8.70;;;2.00;99.90;;;;;;5054742;28;20064;-41
2021/12/10 08:58:34;;;;;;;14.43;7.85;;;2.00;99.90;;;;;;5065837;28;20405;-41
2021/12/10 09:01:06;;;;;;;15.75;8.00;;;2.10;99.90;;;;;;5050776;28;20032;-41
2021/12/10 09:03:33;;;;;;;15.65;8.05;;;2.10;99.90;;;;;;5062166;28;20143;-41
2021/12/10 09:06:00;;;;;;;15.30;8.05;;;2.20;99.90;;;;;;5066388;28;20048;-41
2021/12/10 09:08:26;;;;;;;16.58;9.18;;;2.30;99.90;;;;;;5063967;28;20500;-41
2021/12/10 09:10:52;;;;;;;15.27;8.15;;;2.30;99.90;;;;;;5052950;28;20231;-41
2021/12/10 09:13:24;;;;;;;15.75;7.95;;;2.40;99.90;;;;;;5043121;28;20071;-41
2021/12/10 09:15:58;;;;;;;12.90;7.30;;;2.40;99.90;;;;;;5066894;28;20039;-41
2021/12/10 09:18:25;;;;;;;15.13;8.27;;;2.50;99.90;;;;;;5033525;28;20123;-42
2021/12/10 09:20:54;;;;;;;14.80;7.47;;;;;;;;;;5050055;28;20041;-42
2021/12/10 09:23:25;;;;;;;13.18;7.78;;;2.60;99.90;;;;;;5059304;28;20072;-41
2021/12/10 09:25:55;;;;;;;13.77;7.30;;;2.60;99.90;;;;;;5064136;28;20055;-41
2021/12/10 09:28:23;;;;;;;14.15;8.15;;;2.70;99.90;;;;;;5050461;28;20049;-41
2021/12/10 09:30:51;;;;;;;13.60;7.38;;;2.80;99.90;;;;;;5059364;28;20538;-41
2021/12/10 09:33:18;;;;;;;13.60;7.78;;;2.90;99.90;;;;;;5070541;28;20126;-41
2021/12/10 09:35:44;;;;;;;13.18;7.20;;;2.90;99.90;;;;;;5056684;28;20102;-41
2021/12/10 09:38:10;;;;;;;12.90;7.53;;;3.00;99.90;;;;;;5063969;28;20415;-41
2021/12/10 09:40:41;;;;;;;11.82;6.82;;;3.00;99.90;;;;;;5060354;28;20044;-41
2021/12/10 09:43:09;;;;;;;14.57;7.57;;;3.00;99.90;;;;;;5050988;28;20553;-41
2021/12/10 09:45:38;;;;;;;15.13;7.70;;;3.10;99.90;;;;;;5049643;28;20047;-42
2021/12/10 09:48:06;;;;;;;12.55;7.38;;;3.10;99.90;;;;;;5059057;28;20053;-41
2021/12/10 09:50:39;;;;;;;12.25;7.35;;;3.20;99.90;;;;;;5050672;28;20123;-41
2021/12/10 09:53:06;;;;;;;11.55;7.38;;;3.20;99.90;;;;;;5060228;28;20429;-41
2021/12/10 09:55:32;;;;;;;14.23;8.20;;;3.20;99.90;;;;;;5070319;28;20048;-42
2021/12/10 09:57:59;;;;;;;11.83;7.03;;;3.30;99.90;;;;;;5069689;28;20125;-42
2021/12/10 10:00:31;;;;;;;12.25;7.30;;;3.30;99.90;;;;;;5070005;28;20195;-41
2021/12/10 10:02:59;;;;;;;12.70;7.35;;;3.30;99.90;;;;;;5066808;28;20040;-42
2021/12/10 10:05:27;;;;;;;13.10;6.85;;;3.30;99.90;;;;;;5068443;28;20450;-42
2021/12/10 10:07:58;;;;;;;13.35;7.90;;;3.40;99.90;;;;;;5069611;28;20080;-41
2021/12/10 10:10:28;;;;;;;16.15;7.80;;;3.40;99.90;;;;;;5062458;28;20052;-43
2021/12/10 10:12:55;;;;;;;13.98;8.25;;;3.50;99.90;;;;;;5062597;28;20045;-41
2021/12/10 10:15:27;;;;;;;15.18;8.57;;;3.50;99.90;;;;;;5065685;28;20367;-41
2021/12/10 10:17:55;;;;;;;15.38;8.38;;;3.60;99.90;;;;;;5051181;28;20040;-42
2021/12/10 10:20:22;;;;;;;15.38;7.32;;;3.70;99.90;;;;;;5049410;28;20060;-42
2021/12/10 10:22:48;;;;;;;13.20;7.37;;;3.70;99.90;;;;;;5050879;28;20425;-42
2021/12/10 10:25:16;;;;;;;11.43;7.13;;;3.80;99.90;;;;;;5033161;28;20124;-41
2021/12/10 10:27:43;;;;;;;13.32;6.95;;;3.90;99.90;;;;;;5050529;28;20048;-42
2021/12/10 10:30:15;;;;;;;14.40;6.53;;;3.90;99.90;;;;;;5049599;28;20090;-43
2021/12/10 10:32:45;;;;;;;10.25;7.25;;;4.00;99.90;;;;;;5034646;28;20133;-42
2021/12/10 10:35:18;;;;;;;9.00;6.32;;;4.10;99.90;;;;;;5059997;28;20451;-42
2021/12/10 10:37:45;;;;;;;9.57;6.13;;;4.10;99.90;;;;;;5084124;28;20044;-41
2021/12/10 10:40:15;;;;;;;11.55;6.47;;;4.20;99.90;;;;;;5049458;28;20044;-43
2021/12/10 10:42:42;;;;;;;10.23;6.40;;;4.20;99.90;;;;;;5054519;28;20037;-42
2021/12/10 10:45:17;;;;;;;10.70;6.40;;;4.30;99.90;;;;;;5059726;28;20040;-42
2021/12/10 10:47:44;;;;;;;9.00;6.22;;;4.30;99.90;;;;;;5059842;28;20499;-44
2021/12/10 10:50:24;;;;;;;8.48;6.20;;;4.40;99.90;;;;;;5043312;28;20048;-42
2021/12/10 10:52:55;;;;;;;12.45;6.30;;;4.40;99.90;;;;;;5058584;28;20112;-42
2021/12/10 10:55:33;;;;;;;11.07;6.20;;;4.40;99.90;;;;;;5066745;28;20116;-43
2021/12/10 10:58:10;;;;;;;12.32;6.30;;;4.40;99.90;;;;;;5066054;28;20059;-43
2021/12/10 11:00:51;;;;;;;11.05;6.05;;;4.50;99.90;;;;;;5062791;28;20044;-43
2021/12/10 11:03:22;;;;;;;9.65;5.97;;;4.50;99.90;;;;;;5063971;28;20075;-42
2021/12/10 11:05:56;;;;;;;14.32;5.88;;;4.60;99.90;;;;;;5067067;28;20347;-43
2021/12/10 11:08:33;;;;;;;9.52;5.85;;;4.60;99.90;;;;;;5069325;28;20095;-43
2021/12/10 11:11:15;;;;;;;9.55;5.45;;;4.70;99.90;;;;;;5068438;28;20043;-43
2021/12/10 11:13:43;;;;;;;9.60;6.03;;;4.70;99.90;;;;;;5068836;28;20060;-42
2021/12/10 11:16:13;;;;;;;9.88;5.68;;;4.80;99.90;;;;;;5057474;28;20455;-42
2021/12/10 11:18:48;;;;;;;9.88;5.53;;;4.80;99.90;;;;;;5050910;28;20052;-44
2021/12/10 11:21:17;;;;;;;11.23;5.53;;;4.80;99.90;;;;;;5050564;28;20120;-43
2021/12/10 11:23:44;;;;;;;9.20;5.28;;;4.90;99.90;;;;;;5051637;28;20041;-43
2021/12/10 11:26:11;;;;;;;8.13;5.15;;;4.90;99.90;;;;;;5053304;28;20107;-43
2021/12/10 11:28:41;;;;;;;10.25;6.32;;;4.90;99.90;;;;;;5048678;28;20041;-43
2021/12/10 11:31:10;;;;;;;9.43;5.20;;;4.90;99.90;;;;;;5048831;28;20388;-44
2021/12/10 11:33:50;;;;;;;7.65;4.80;;;4.90;99.90;;;;;;5041795;28;20051;-43
2021/12/10 11:36:23;;;;;;;9.80;4.97;;;4.90;99.90;;;;;;5051644;28;20126;-44
2021/12/10 11:38:54;;;;;;;8.77;5.47;;;4.80;99.90;;;;;;5050388;28;20033;-42
2021/12/10 11:41:26;;;;;;;9.02;5.43;;;4.80;99.90;;;;;;5049992;28;20351;-42
2021/12/10 11:46:51;;;;;;;13.48;5.70;;;4.70;99.90;;;;;;5056115;28;20351;-44
2021/12/10 11:49:40;;;;;;;9.15;4.85;;;4.70;99.90;;;;;;5061939;28;20067;-44
2021/12/10 11:52:16;;;;;;;9.07;5.00;;;4.70;99.90;;;;;;5037950;28;20058;-43
2021/12/10 11:54:50;;;;;;;9.50;5.28;;;4.60;99.90;;;;;;5068436;28;20058;-43
2021/12/10 11:57:25;;;;;;;6.97;4.40;;;4.60;99.90;;;;;;5065537;28;20088;-44
2021/12/10 12:00:04;;;;;;;8.93;4.75;;;4.60;99.90;;;;;;5048257;28;20051;-44
2021/12/10 12:02:35;;;;;;;6.72;4.45;;;4.60;99.90;;;;;;5048377;28;20135;-41
2021/12/10 12:05:11;;;;;;;9.75;5.65;;;4.60;99.90;;;;;;5055563;28;20036;-42
2021/12/10 12:07:43;;;;;;;8.77;4.82;;;4.60;99.90;;;;;;5049538;28;20041;-42
2021/12/10 12:10:14;;;;;;;10.20;5.22;;;4.50;99.90;;;;;;5047563;28;20059;-42
2021/12/10 12:12:59;;;;;;;7.30;4.68;;;4.50;99.90;;;;;;5031508;28;20045;-42
2021/12/10 12:15:33;;;;;;;8.80;5.03;;;4.50;99.90;;;;;;5056449;28;20056;-42
2021/12/10 12:18:14;;;;;;;10.77;5.50;;;4.50;99.90;;;;;;5049444;28;20098;-43
2021/12/10 12:20:53;;;;;;;8.30;4.85;;;4.50;99.90;;;;;;5059281;28;20107;-43
2021/12/10 12:26:26;;;;;;;10.20;5.88;;;4.50;99.90;;;;;;5049077;28;20053;-42
2021/12/10 12:29:02;;;;;;;10.02;5.57;;;4.50;99.90;;;;;;5050982;28;20036;-42
2021/12/10 12:31:37;;;;;;;10.60;5.00;;;4.50;99.90;;;;;;5063155;28;20100;-42
2021/12/10 12:34:23;;;;;;;10.02;4.93;;;4.50;99.90;;;;;;5048589;28;20063;-42
2021/12/10 12:37:03;;;;;;;8.10;5.10;;;4.50;99.90;;;;;;5053964;28;20084;-42
2021/12/10 12:39:34;;;;;;;8.82;4.80;;;4.60;99.90;;;;;;5049376;28;20045;-42
2021/12/10 12:42:04;;;;;;;7.82;4.68;;;4.60;99.90;;;;;;5048654;28;20076;-43
2021/12/10 12:44:39;;;;;;;10.00;5.55;;;4.60;99.90;;;;;;5060526;28;20079;-42
2021/12/10 12:47:22;;;;;;;7.68;4.60;;;4.60;99.90;;;;;;5047464;28;20095;-42
2021/12/10 12:49:48;;;;;;;13.32;5.32;;;4.60;99.90;;;;;;5047498;28;20144;-42
2021/12/10 12:52:18;;;;;;;10.48;5.30;;;4.60;99.90;;;;;;5049465;28;20435;-42
2021/12/10 12:55:21;;;;;;;10.73;5.05;;;4.60;99.90;;;;;;5057393;28;20539;-42
2021/12/10 12:58:09;;;;;;;13.10;5.15;;;4.60;99.90;;;;;;5047495;28;20086;-42
2021/12/10 13:00:41;;;;;;;8.75;4.35;;;4.60;99.90;;;;;;5049051;28;20064;-43
2021/12/10 13:03:16;;;;;;;7.63;4.70;;;4.60;99.90;;;;;;5039197;28;20040;-42
2021/12/10 13:05:55;;;;;;;8.70;5.03;;;4.50;99.90;;;;;;5053838;28;20040;-42